sensor_id;sensor_type;location;lat;lon;timestamp;P1;durP1;ratioP1;P2;durP2;ratioP2
72319;SDS011;60269;52.502;16.732;2023-09-30T00:02:20;14.90;;;6.30;;
72319;SDS011;60269;52.502;16.732;2023-09-30T00:05:52;14.30;;;6.03;;
72319;SDS011;60269;52.502;16.732;2023-09-30T00:09:24;11.82;;;6.38;;
72319;SDS011;60269;52.502;16.732;2023-09-30T00:12:56;12.23;;;6.20;;
72319;SDS011;60269;52.502;16.732;2023-09-30T00:16:28;17.10;;;5.80;;
72319;SDS011;60269;52.502;16.732;2023-09-30T00:20:01;12.80;;;5.88;;
72319;SDS011;60269;52.502;16.732;2023-09-30T00:23:35;12.45;;;5.10;;
72319;SDS011;60269;52.502;16.732;2023-09-30T00:27:07;13.60;;;5.93;;
72319;SDS011;60269;52.502;16.732;2023-09-30T00:30:39;13.07;;;5.40;;
72319;SDS011;60269;52.502;16.732;2023-09-30T00:34:11;11.25;;;5.38;;
72319;SDS011;60269;52.502;16.732;2023-09-30T00:37:43;17.17;;;5.80;;
72319;SDS011;60269;52.502;16.732;2023-09-30T00:41:16;10.17;;;5.40;;
72319;SDS011;60269;52.502;16.732;2023-09-30T00:44:48;12.23;;;5.00;;
72319;SDS011;60269;52.502;16.732;2023-09-30T00:48:23;11.85;;;5.28;;
72319;SDS011;60269;52.502;16.732;2023-09-30T00:51:55;13.00;;;5.75;;
72319;SDS011;60269;52.502;16.732;2023-09-30T00:55:28;10.73;;;5.93;;
72319;SDS011;60269;52.502;16.732;2023-09-30T00:59:00;12.90;;;5.40;;
72319;SDS011;60269;52.502;16.732;2023-09-30T01:02:33;11.85;;;4.85;;
72319;SDS011;60269;52.502;16.732;2023-09-30T01:06:06;12.60;;;5.88;;
72319;SDS011;60269;52.502;16.732;2023-09-30T01:09:40;13.03;;;5.13;;
72319;SDS011;60269;52.502;16.732;2023-09-30T01:13:13;10.50;;;4.97;;
72319;SDS011;60269;52.502;16.732;2023-09-30T01:16:45;14.88;;;5.32;;
72319;SDS011;60269;52.502;16.732;2023-09-30T01:20:17;13.90;;;5.25;;
72319;SDS011;60269;52.502;16.732;2023-09-30T01:23:51;9.37;;;4.80;;
72319;SDS011;60269;52.502;16.732;2023-09-30T01:27:23;11.38;;;5.43;;
72319;SDS011;60269;52.502;16.732;2023-09-30T01:30:55;10.45;;;4.82;;
72319;SDS011;60269;52.502;16.732;2023-09-30T01:34:27;12.30;;;4.70;;
72319;SDS011;60269;52.502;16.732;2023-09-30T01:37:59;11.50;;;4.93;;
72319;SDS011;60269;52.502;16.732;2023-09-30T01:41:32;10.05;;;5.05;;
72319;SDS011;60269;52.502;16.732;2023-09-30T01:45:04;14.35;;;5.72;;
72319;SDS011;60269;52.502;16.732;2023-09-30T01:48:37;13.40;;;5.40;;
72319;SDS011;60269;52.502;16.732;2023-09-30T01:52:09;9.93;;;5.17;;
72319;SDS011;60269;52.502;16.732;2023-09-30T01:55:41;12.75;;;5.40;;
72319;SDS011;60269;52.502;16.732;2023-09-30T01:59:13;11.13;;;5.75;;
72319;SDS011;60269;52.502;16.732;2023-09-30T02:02:45;13.10;;;6.00;;
72319;SDS011;60269;52.502;16.732;2023-09-30T02:06:18;12.02;;;6.03;;
72319;SDS011;60269;52.502;16.732;2023-09-30T02:09:49;12.52;;;5.90;;
72319;SDS011;60269;52.502;16.732;2023-09-30T02:13:22;14.48;;;6.32;;
72319;SDS011;60269;52.502;16.732;2023-09-30T02:16:54;12.07;;;6.30;;
72319;SDS011;60269;52.502;16.732;2023-09-30T02:20:26;12.15;;;5.63;;
72319;SDS011;60269;52.502;16.732;2023-09-30T02:24:01;11.95;;;6.15;;
72319;SDS011;60269;52.502;16.732;2023-09-30T02:27:34;12.40;;;6.60;;
72319;SDS011;60269;52.502;16.732;2023-09-30T02:31:06;10.97;;;6.07;;
72319;SDS011;60269;52.502;16.732;2023-09-30T02:34:39;11.85;;;6.20;;
72319;SDS011;60269;52.502;16.732;2023-09-30T02:38:11;14.00;;;7.20;;
72319;SDS011;60269;52.502;16.732;2023-09-30T02:41:44;13.63;;;7.07;;
72319;SDS011;60269;52.502;16.732;2023-09-30T02:45:16;12.67;;;7.17;;
72319;SDS011;60269;52.502;16.732;2023-09-30T02:48:49;15.10;;;7.50;;
72319;SDS011;60269;52.502;16.732;2023-09-30T02:52:21;14.60;;;7.20;;
72319;SDS011;60269;52.502;16.732;2023-09-30T02:55:53;15.30;;;7.17;;
72319;SDS011;60269;52.502;16.732;2023-09-30T02:59:28;13.87;;;7.60;;
72319;SDS011;60269;52.502;16.732;2023-09-30T03:03:01;12.57;;;6.88;;
72319;SDS011;60269;52.502;16.732;2023-09-30T03:06:33;16.13;;;7.63;;
72319;SDS011;60269;52.502;16.732;2023-09-30T03:10:09;16.10;;;7.80;;
72319;SDS011;60269;52.502;16.732;2023-09-30T03:13:41;11.93;;;6.57;;
72319;SDS011;60269;52.502;16.732;2023-09-30T03:17:14;13.63;;;7.07;;
72319;SDS011;60269;52.502;16.732;2023-09-30T03:20:46;14.20;;;6.55;;
72319;SDS011;60269;52.502;16.732;2023-09-30T03:24:19;13.60;;;6.23;;
72319;SDS011;60269;52.502;16.732;2023-09-30T03:27:52;13.07;;;5.20;;
72319;SDS011;60269;52.502;16.732;2023-09-30T03:31:25;13.43;;;4.80;;
72319;SDS011;60269;52.502;16.732;2023-09-30T03:34:57;9.48;;;4.35;;
72319;SDS011;60269;52.502;16.732;2023-09-30T03:38:32;10.47;;;3.73;;
72319;SDS011;60269;52.502;16.732;2023-09-30T03:42:04;9.53;;;3.10;;
72319;SDS011;60269;52.502;16.732;2023-09-30T03:45:36;8.68;;;1.83;;
72319;SDS011;60269;52.502;16.732;2023-09-30T03:49:10;5.70;;;1.20;;
72319;SDS011;60269;52.502;16.732;2023-09-30T03:52:43;6.93;;;1.40;;
72319;SDS011;60269;52.502;16.732;2023-09-30T03:56:18;7.93;;;1.27;;
72319;SDS011;60269;52.502;16.732;2023-09-30T03:59:50;6.15;;;1.10;;
72319;SDS011;60269;52.502;16.732;2023-09-30T04:03:22;6.95;;;1.17;;
72319;SDS011;60269;52.502;16.732;2023-09-30T04:06:55;5.23;;;1.07;;
72319;SDS011;60269;52.502;16.732;2023-09-30T04:10:28;4.93;;;0.87;;
72319;SDS011;60269;52.502;16.732;2023-09-30T04:14:02;5.28;;;0.90;;
72319;SDS011;60269;52.502;16.732;2023-09-30T04:17:34;3.40;;;0.60;;
72319;SDS011;60269;52.502;16.732;2023-09-30T04:21:09;5.37;;;0.70;;
72319;SDS011;60269;52.502;16.732;2023-09-30T04:24:41;5.63;;;0.63;;
72319;SDS011;60269;52.502;16.732;2023-09-30T04:28:13;7.05;;;0.73;;
72319;SDS011;60269;52.502;16.732;2023-09-30T04:31:45;3.90;;;0.50;;
72319;SDS011;60269;52.502;16.732;2023-09-30T04:35:18;4.70;;;0.80;;
72319;SDS011;60269;52.502;16.732;2023-09-30T04:38:50;4.60;;;0.73;;
72319;SDS011;60269;52.502;16.732;2023-09-30T04:42:22;5.20;;;1.00;;
72319;SDS011;60269;52.502;16.732;2023-09-30T04:45:56;5.25;;;0.90;;
72319;SDS011;60269;52.502;16.732;2023-09-30T04:49:29;8.47;;;1.53;;
72319;SDS011;60269;52.502;16.732;2023-09-30T04:53:02;8.93;;;2.00;;
72319;SDS011;60269;52.502;16.732;2023-09-30T04:56:35;8.63;;;2.42;;
72319;SDS011;60269;52.502;16.732;2023-09-30T05:00:07;14.73;;;2.00;;
72319;SDS011;60269;52.502;16.732;2023-09-30T05:03:46;11.23;;;1.87;;
72319;SDS011;60269;52.502;16.732;2023-09-30T05:07:21;9.25;;;1.55;;
72319;SDS011;60269;52.502;16.732;2023-09-30T05:10:53;7.18;;;1.25;;
72319;SDS011;60269;52.502;16.732;2023-09-30T05:14:27;8.93;;;1.20;;
72319;SDS011;60269;52.502;16.732;2023-09-30T05:18:00;8.60;;;1.30;;
72319;SDS011;60269;52.502;16.732;2023-09-30T05:21:33;11.38;;;1.38;;
72319;SDS011;60269;52.502;16.732;2023-09-30T05:25:08;10.20;;;1.35;;
72319;SDS011;60269;52.502;16.732;2023-09-30T05:28:40;8.63;;;1.00;;
72319;SDS011;60269;52.502;16.732;2023-09-30T05:32:17;9.80;;;1.27;;
72319;SDS011;60269;52.502;16.732;2023-09-30T05:35:50;8.15;;;1.33;;
72319;SDS011;60269;52.502;16.732;2023-09-30T05:39:23;9.95;;;1.15;;
72319;SDS011;60269;52.502;16.732;2023-09-30T05:42:57;12.47;;;1.23;;
72319;SDS011;60269;52.502;16.732;2023-09-30T05:46:31;9.10;;;1.02;;
72319;SDS011;60269;52.502;16.732;2023-09-30T05:50:03;11.35;;;0.98;;
72319;SDS011;60269;52.502;16.732;2023-09-30T05:53:37;7.83;;;1.17;;
72319;SDS011;60269;52.502;16.732;2023-09-30T05:57:09;9.37;;;1.10;;
72319;SDS011;60269;52.502;16.732;2023-09-30T06:00:42;10.68;;;0.98;;
72319;SDS011;60269;52.502;16.732;2023-09-30T06:04:15;9.25;;;1.23;;
72319;SDS011;60269;52.502;16.732;2023-09-30T06:07:48;9.97;;;1.50;;
72319;SDS011;60269;52.502;16.732;2023-09-30T06:11:21;11.60;;;2.40;;
72319;SDS011;60269;52.502;16.732;2023-09-30T06:14:56;9.32;;;1.17;;
72319;SDS011;60269;52.502;16.732;2023-09-30T06:18:28;14.52;;;1.63;;
72319;SDS011;60269;52.502;16.732;2023-09-30T06:22:00;12.43;;;2.00;;
72319;SDS011;60269;52.502;16.732;2023-09-30T06:25:36;7.13;;;0.90;;
72319;SDS011;60269;52.502;16.732;2023-09-30T06:29:08;12.35;;;2.03;;
72319;SDS011;60269;52.502;16.732;2023-09-30T06:32:40;10.85;;;2.20;;
72319;SDS011;60269;52.502;16.732;2023-09-30T06:36:16;13.47;;;1.47;;
72319;SDS011;60269;52.502;16.732;2023-09-30T06:39:48;9.88;;;1.95;;
72319;SDS011;60269;52.502;16.732;2023-09-30T06:43:21;10.57;;;1.42;;
72319;SDS011;60269;52.502;16.732;2023-09-30T06:46:54;11.40;;;2.00;;
72319;SDS011;60269;52.502;16.732;2023-09-30T06:50:26;9.98;;;1.20;;
72319;SDS011;60269;52.502;16.732;2023-09-30T06:53:59;13.05;;;1.60;;
72319;SDS011;60269;52.502;16.732;2023-09-30T06:57:33;11.05;;;2.30;;
72319;SDS011;60269;52.502;16.732;2023-09-30T07:01:05;11.20;;;1.50;;
72319;SDS011;60269;52.502;16.732;2023-09-30T07:04:38;13.38;;;1.67;;
72319;SDS011;60269;52.502;16.732;2023-09-30T07:08:10;15.40;;;2.10;;
72319;SDS011;60269;52.502;16.732;2023-09-30T07:11:42;11.20;;;2.33;;
72319;SDS011;60269;52.502;16.732;2023-09-30T07:15:14;10.63;;;1.87;;
72319;SDS011;60269;52.502;16.732;2023-09-30T07:18:46;9.05;;;2.03;;
72319;SDS011;60269;52.502;16.732;2023-09-30T07:22:18;11.73;;;2.08;;
72319;SDS011;60269;52.502;16.732;2023-09-30T07:26:05;13.67;;;1.87;;
72319;SDS011;60269;52.502;16.732;2023-09-30T07:29:37;12.30;;;1.77;;
72319;SDS011;60269;52.502;16.732;2023-09-30T07:33:10;11.43;;;1.63;;
72319;SDS011;60269;52.502;16.732;2023-09-30T07:36:42;9.23;;;1.50;;
72319;SDS011;60269;52.502;16.732;2023-09-30T07:40:14;9.77;;;1.13;;
72319;SDS011;60269;52.502;16.732;2023-09-30T07:43:47;11.65;;;1.73;;
72319;SDS011;60269;52.502;16.732;2023-09-30T07:47:19;13.60;;;2.05;;
72319;SDS011;60269;52.502;16.732;2023-09-30T07:50:51;11.68;;;1.63;;
72319;SDS011;60269;52.502;16.732;2023-09-30T07:54:23;12.93;;;1.93;;
72319;SDS011;60269;52.502;16.732;2023-09-30T07:58:02;15.73;;;1.67;;
72319;SDS011;60269;52.502;16.732;2023-09-30T08:01:35;9.38;;;1.50;;
72319;SDS011;60269;52.502;16.732;2023-09-30T08:05:07;14.13;;;1.93;;
72319;SDS011;60269;52.502;16.732;2023-09-30T08:08:40;14.73;;;2.13;;
72319;SDS011;60269;52.502;16.732;2023-09-30T08:12:12;10.85;;;1.90;;
72319;SDS011;60269;52.502;16.732;2023-09-30T08:15:44;14.60;;;2.03;;
72319;SDS011;60269;52.502;16.732;2023-09-30T08:19:16;10.67;;;1.67;;
72319;SDS011;60269;52.502;16.732;2023-09-30T08:22:48;9.40;;;1.63;;
72319;SDS011;60269;52.502;16.732;2023-09-30T08:26:20;11.60;;;1.77;;
72319;SDS011;60269;52.502;16.732;2023-09-30T08:29:52;11.30;;;1.75;;
72319;SDS011;60269;52.502;16.732;2023-09-30T08:33:25;5.80;;;1.27;;
72319;SDS011;60269;52.502;16.732;2023-09-30T08:36:59;12.20;;;1.70;;
72319;SDS011;60269;52.502;16.732;2023-09-30T08:40:32;10.40;;;1.70;;
72319;SDS011;60269;52.502;16.732;2023-09-30T08:44:04;12.38;;;1.85;;
72319;SDS011;60269;52.502;16.732;2023-09-30T08:47:36;9.20;;;1.30;;
72319;SDS011;60269;52.502;16.732;2023-09-30T08:51:08;8.50;;;1.50;;
72319;SDS011;60269;52.502;16.732;2023-09-30T08:54:41;8.65;;;1.58;;
72319;SDS011;60269;52.502;16.732;2023-09-30T08:58:13;8.82;;;1.40;;
72319;SDS011;60269;52.502;16.732;2023-09-30T09:01:46;10.60;;;1.50;;
72319;SDS011;60269;52.502;16.732;2023-09-30T09:05:18;12.73;;;2.27;;
72319;SDS011;60269;52.502;16.732;2023-09-30T09:08:51;8.93;;;1.33;;
72319;SDS011;60269;52.502;16.732;2023-09-30T09:12:23;12.30;;;1.83;;
72319;SDS011;60269;52.502;16.732;2023-09-30T09:16:06;13.43;;;1.90;;
72319;SDS011;60269;52.502;16.732;2023-09-30T09:19:39;9.85;;;1.63;;
72319;SDS011;60269;52.502;16.732;2023-09-30T09:23:14;12.73;;;1.77;;
72319;SDS011;60269;52.502;16.732;2023-09-30T09:26:46;8.55;;;1.48;;
72319;SDS011;60269;52.502;16.732;2023-09-30T09:30:23;11.60;;;1.80;;
72319;SDS011;60269;52.502;16.732;2023-09-30T09:33:57;8.02;;;1.30;;
72319;SDS011;60269;52.502;16.732;2023-09-30T09:37:30;9.45;;;1.48;;
72319;SDS011;60269;52.502;16.732;2023-09-30T09:41:03;8.33;;;1.30;;
72319;SDS011;60269;52.502;16.732;2023-09-30T09:44:37;11.53;;;1.73;;
72319;SDS011;60269;52.502;16.732;2023-09-30T09:48:09;7.90;;;1.20;;
72319;SDS011;60269;52.502;16.732;2023-09-30T09:51:43;9.65;;;1.30;;
72319;SDS011;60269;52.502;16.732;2023-09-30T09:55:17;11.70;;;1.60;;
72319;SDS011;60269;52.502;16.732;2023-09-30T09:58:50;10.00;;;1.43;;
72319;SDS011;60269;52.502;16.732;2023-09-30T10:02:22;10.25;;;1.27;;
72319;SDS011;60269;52.502;16.732;2023-09-30T10:05:55;10.35;;;1.38;;
72319;SDS011;60269;52.502;16.732;2023-09-30T10:09:27;6.13;;;1.17;;
72319;SDS011;60269;52.502;16.732;2023-09-30T10:13:01;6.93;;;1.10;;
72319;SDS011;60269;52.502;16.732;2023-09-30T10:20:13;7.90;;;1.23;;
72319;SDS011;60269;52.502;16.732;2023-09-30T10:23:45;5.40;;;1.10;;
72319;SDS011;60269;52.502;16.732;2023-09-30T10:31:12;10.02;;;1.10;;
72319;SDS011;60269;52.502;16.732;2023-09-30T10:34:48;6.72;;;1.10;;
72319;SDS011;60269;52.502;16.732;2023-09-30T10:41:58;8.67;;;0.87;;
72319;SDS011;60269;52.502;16.732;2023-09-30T10:49:14;6.20;;;0.80;;
72319;SDS011;60269;52.502;16.732;2023-09-30T10:52:48;5.87;;;1.10;;
72319;SDS011;60269;52.502;16.732;2023-09-30T10:56:21;5.63;;;1.07;;
72319;SDS011;60269;52.502;16.732;2023-09-30T11:00:09;10.02;;;1.20;;
72319;SDS011;60269;52.502;16.732;2023-09-30T11:03:46;5.88;;;1.00;;
72319;SDS011;60269;52.502;16.732;2023-09-30T11:07:23;6.43;;;1.07;;
72319;SDS011;60269;52.502;16.732;2023-09-30T11:10:58;10.02;;;1.40;;
72319;SDS011;60269;52.502;16.732;2023-09-30T11:14:32;9.75;;;1.13;;
72319;SDS011;60269;52.502;16.732;2023-09-30T11:21:45;6.10;;;1.13;;
72319;SDS011;60269;52.502;16.732;2023-09-30T11:25:19;8.25;;;1.23;;
72319;SDS011;60269;52.502;16.732;2023-09-30T11:28:51;9.90;;;1.15;;
72319;SDS011;60269;52.502;16.732;2023-09-30T11:32:25;6.83;;;1.00;;
72319;SDS011;60269;52.502;16.732;2023-09-30T11:36:03;8.33;;;1.10;;
72319;SDS011;60269;52.502;16.732;2023-09-30T11:39:37;9.00;;;1.20;;
72319;SDS011;60269;52.502;16.732;2023-09-30T11:43:10;9.43;;;1.60;;
72319;SDS011;60269;52.502;16.732;2023-09-30T11:46:51;10.90;;;1.50;;
72319;SDS011;60269;52.502;16.732;2023-09-30T11:50:48;6.43;;;1.10;;
72319;SDS011;60269;52.502;16.732;2023-09-30T11:54:21;10.25;;;1.85;;
72319;SDS011;60269;52.502;16.732;2023-09-30T11:57:54;9.98;;;1.17;;
72319;SDS011;60269;52.502;16.732;2023-09-30T12:01:26;8.27;;;1.60;;
72319;SDS011;60269;52.502;16.732;2023-09-30T12:05:03;9.17;;;1.20;;
72319;SDS011;60269;52.502;16.732;2023-09-30T12:08:42;11.48;;;1.33;;
72319;SDS011;60269;52.502;16.732;2023-09-30T12:12:16;9.77;;;0.93;;
72319;SDS011;60269;52.502;16.732;2023-09-30T12:15:49;6.57;;;1.13;;
72319;SDS011;60269;52.502;16.732;2023-09-30T12:19:24;12.70;;;1.43;;
72319;SDS011;60269;52.502;16.732;2023-09-30T12:22:58;10.05;;;1.25;;
72319;SDS011;60269;52.502;16.732;2023-09-30T12:26:30;9.77;;;1.25;;
72319;SDS011;60269;52.502;16.732;2023-09-30T12:30:02;12.03;;;1.27;;
72319;SDS011;60269;52.502;16.732;2023-09-30T12:33:36;9.43;;;1.30;;
72319;SDS011;60269;52.502;16.732;2023-09-30T12:37:08;6.57;;;1.10;;
72319;SDS011;60269;52.502;16.732;2023-09-30T12:40:40;8.80;;;1.25;;
72319;SDS011;60269;52.502;16.732;2023-09-30T12:44:12;7.17;;;1.30;;
72319;SDS011;60269;52.502;16.732;2023-09-30T12:47:45;8.40;;;1.20;;
72319;SDS011;60269;52.502;16.732;2023-09-30T12:51:18;7.20;;;0.98;;
72319;SDS011;60269;52.502;16.732;2023-09-30T12:54:51;9.10;;;1.20;;
72319;SDS011;60269;52.502;16.732;2023-09-30T12:58:23;8.57;;;1.73;;
72319;SDS011;60269;52.502;16.732;2023-09-30T13:01:55;7.97;;;1.47;;
72319;SDS011;60269;52.502;16.732;2023-09-30T13:05:28;5.72;;;1.48;;
72319;SDS011;60269;52.502;16.732;2023-09-30T13:09:03;9.77;;;1.35;;
72319;SDS011;60269;52.502;16.732;2023-09-30T13:12:41;8.53;;;1.43;;
72319;SDS011;60269;52.502;16.732;2023-09-30T13:16:13;5.40;;;1.03;;
72319;SDS011;60269;52.502;16.732;2023-09-30T13:19:45;6.18;;;0.95;;
72319;SDS011;60269;52.502;16.732;2023-09-30T13:23:18;7.43;;;0.90;;
72319;SDS011;60269;52.502;16.732;2023-09-30T13:26:51;8.97;;;1.33;;
72319;SDS011;60269;52.502;16.732;2023-09-30T13:30:24;7.22;;;1.17;;
72319;SDS011;60269;52.502;16.732;2023-09-30T13:33:56;6.68;;;1.10;;
72319;SDS011;60269;52.502;16.732;2023-09-30T13:37:28;9.23;;;1.08;;
72319;SDS011;60269;52.502;16.732;2023-09-30T13:41:04;6.60;;;1.37;;
72319;SDS011;60269;52.502;16.732;2023-09-30T13:44:37;7.45;;;1.33;;
72319;SDS011;60269;52.502;16.732;2023-09-30T13:48:09;6.45;;;1.10;;
72319;SDS011;60269;52.502;16.732;2023-09-30T13:51:41;6.40;;;1.33;;
72319;SDS011;60269;52.502;16.732;2023-09-30T13:55:13;8.77;;;1.27;;
72319;SDS011;60269;52.502;16.732;2023-09-30T13:58:50;11.05;;;1.50;;
72319;SDS011;60269;52.502;16.732;2023-09-30T14:02:23;7.97;;;2.15;;
72319;SDS011;60269;52.502;16.732;2023-09-30T14:05:56;6.77;;;1.07;;
72319;SDS011;60269;52.502;16.732;2023-09-30T14:09:28;9.63;;;1.30;;
72319;SDS011;60269;52.502;16.732;2023-09-30T14:13:07;6.47;;;0.80;;
72319;SDS011;60269;52.502;16.732;2023-09-30T14:16:39;5.80;;;0.95;;
72319;SDS011;60269;52.502;16.732;2023-09-30T14:20:12;5.77;;;1.23;;
72319;SDS011;60269;52.502;16.732;2023-09-30T14:23:44;8.87;;;1.13;;
72319;SDS011;60269;52.502;16.732;2023-09-30T14:27:16;10.45;;;1.73;;
72319;SDS011;60269;52.502;16.732;2023-09-30T14:30:48;8.38;;;1.23;;
72319;SDS011;60269;52.502;16.732;2023-09-30T14:34:22;6.20;;;0.93;;
72319;SDS011;60269;52.502;16.732;2023-09-30T14:37:54;9.00;;;1.10;;
72319;SDS011;60269;52.502;16.732;2023-09-30T14:41:29;8.93;;;1.75;;
72319;SDS011;60269;52.502;16.732;2023-09-30T14:45:00;8.80;;;2.00;;
72319;SDS011;60269;52.502;16.732;2023-09-30T14:48:33;10.17;;;1.40;;
72319;SDS011;60269;52.502;16.732;2023-09-30T14:52:05;7.10;;;1.15;;
72319;SDS011;60269;52.502;16.732;2023-09-30T14:55:38;10.05;;;1.52;;
72319;SDS011;60269;52.502;16.732;2023-09-30T14:59:10;10.20;;;1.10;;
72319;SDS011;60269;52.502;16.732;2023-09-30T15:02:43;7.70;;;1.27;;
72319;SDS011;60269;52.502;16.732;2023-09-30T15:06:14;7.55;;;1.48;;
72319;SDS011;60269;52.502;16.732;2023-09-30T15:09:47;6.65;;;1.08;;
72319;SDS011;60269;52.502;16.732;2023-09-30T15:13:19;9.50;;;1.63;;
72319;SDS011;60269;52.502;16.732;2023-09-30T15:16:51;10.77;;;1.20;;
72319;SDS011;60269;52.502;16.732;2023-09-30T15:20:23;9.52;;;1.27;;
72319;SDS011;60269;52.502;16.732;2023-09-30T15:23:57;7.68;;;0.95;;
72319;SDS011;60269;52.502;16.732;2023-09-30T15:27:29;8.23;;;0.80;;
72319;SDS011;60269;52.502;16.732;2023-09-30T15:31:01;8.77;;;1.05;;
72319;SDS011;60269;52.502;16.732;2023-09-30T15:34:35;10.73;;;0.88;;
72319;SDS011;60269;52.502;16.732;2023-09-30T15:38:10;12.18;;;1.60;;
72319;SDS011;60269;52.502;16.732;2023-09-30T15:41:41;8.93;;;1.20;;
72319;SDS011;60269;52.502;16.732;2023-09-30T15:45:14;11.95;;;1.50;;
72319;SDS011;60269;52.502;16.732;2023-09-30T15:48:46;6.40;;;1.20;;
72319;SDS011;60269;52.502;16.732;2023-09-30T15:52:18;7.07;;;0.85;;
72319;SDS011;60269;52.502;16.732;2023-09-30T15:55:50;8.53;;;1.43;;
72319;SDS011;60269;52.502;16.732;2023-09-30T15:59:23;8.35;;;0.82;;
72319;SDS011;60269;52.502;16.732;2023-09-30T16:02:55;8.55;;;0.88;;
72319;SDS011;60269;52.502;16.732;2023-09-30T16:06:27;11.17;;;1.20;;
72319;SDS011;60269;52.502;16.732;2023-09-30T16:09:59;7.67;;;2.03;;
72319;SDS011;60269;52.502;16.732;2023-09-30T16:13:31;8.27;;;1.13;;
72319;SDS011;60269;52.502;16.732;2023-09-30T16:17:03;9.20;;;1.10;;
72319;SDS011;60269;52.502;16.732;2023-09-30T16:20:36;10.97;;;1.17;;
72319;SDS011;60269;52.502;16.732;2023-09-30T16:24:07;9.33;;;1.23;;
72319;SDS011;60269;52.502;16.732;2023-09-30T16:27:40;8.27;;;0.95;;
72319;SDS011;60269;52.502;16.732;2023-09-30T16:31:12;8.18;;;0.90;;
72319;SDS011;60269;52.502;16.732;2023-09-30T16:34:44;10.27;;;1.03;;
72319;SDS011;60269;52.502;16.732;2023-09-30T16:38:16;6.47;;;0.85;;
72319;SDS011;60269;52.502;16.732;2023-09-30T16:41:48;11.77;;;1.48;;
72319;SDS011;60269;52.502;16.732;2023-09-30T16:45:20;8.55;;;0.95;;
72319;SDS011;60269;52.502;16.732;2023-09-30T16:48:56;7.40;;;0.93;;
72319;SDS011;60269;52.502;16.732;2023-09-30T16:52:28;7.25;;;0.82;;
72319;SDS011;60269;52.502;16.732;2023-09-30T16:56:01;10.30;;;0.95;;
72319;SDS011;60269;52.502;16.732;2023-09-30T16:59:34;11.60;;;0.93;;
72319;SDS011;60269;52.502;16.732;2023-09-30T17:03:06;11.90;;;1.20;;
72319;SDS011;60269;52.502;16.732;2023-09-30T17:06:38;8.20;;;1.02;;
72319;SDS011;60269;52.502;16.732;2023-09-30T17:10:12;8.43;;;0.88;;
72319;SDS011;60269;52.502;16.732;2023-09-30T17:13:44;8.20;;;0.80;;
72319;SDS011;60269;52.502;16.732;2023-09-30T17:17:16;15.27;;;0.95;;
72319;SDS011;60269;52.502;16.732;2023-09-30T17:20:48;9.18;;;0.85;;
72319;SDS011;60269;52.502;16.732;2023-09-30T17:24:21;9.03;;;0.87;;
72319;SDS011;60269;52.502;16.732;2023-09-30T17:27:53;8.10;;;1.23;;
72319;SDS011;60269;52.502;16.732;2023-09-30T17:31:25;8.30;;;0.88;;
72319;SDS011;60269;52.502;16.732;2023-09-30T17:34:58;12.85;;;1.60;;
72319;SDS011;60269;52.502;16.732;2023-09-30T17:38:31;9.03;;;0.90;;
72319;SDS011;60269;52.502;16.732;2023-09-30T17:42:04;10.53;;;2.30;;
72319;SDS011;60269;52.502;16.732;2023-09-30T17:45:36;13.65;;;1.83;;
72319;SDS011;60269;52.502;16.732;2023-09-30T17:49:08;10.63;;;1.70;;
72319;SDS011;60269;52.502;16.732;2023-09-30T17:52:41;10.50;;;1.80;;
72319;SDS011;60269;52.502;16.732;2023-09-30T17:56:14;10.73;;;1.63;;
72319;SDS011;60269;52.502;16.732;2023-09-30T17:59:47;11.43;;;1.55;;
72319;SDS011;60269;52.502;16.732;2023-09-30T18:03:19;15.02;;;1.55;;
72319;SDS011;60269;52.502;16.732;2023-09-30T18:06:51;6.77;;;1.17;;
72319;SDS011;60269;52.502;16.732;2023-09-30T18:10:23;7.57;;;1.25;;
72319;SDS011;60269;52.502;16.732;2023-09-30T18:13:56;9.38;;;1.73;;
72319;SDS011;60269;52.502;16.732;2023-09-30T18:17:35;10.83;;;1.60;;
72319;SDS011;60269;52.502;16.732;2023-09-30T18:21:08;12.75;;;1.52;;
72319;SDS011;60269;52.502;16.732;2023-09-30T18:24:43;14.18;;;1.85;;
72319;SDS011;60269;52.502;16.732;2023-09-30T18:28:18;12.43;;;2.07;;
72319;SDS011;60269;52.502;16.732;2023-09-30T18:31:50;9.63;;;1.52;;
72319;SDS011;60269;52.502;16.732;2023-09-30T18:35:24;9.40;;;1.70;;
72319;SDS011;60269;52.502;16.732;2023-09-30T18:38:56;11.60;;;1.67;;
72319;SDS011;60269;52.502;16.732;2023-09-30T18:42:39;12.57;;;1.47;;
72319;SDS011;60269;52.502;16.732;2023-09-30T18:46:11;9.65;;;1.33;;
72319;SDS011;60269;52.502;16.732;2023-09-30T18:49:44;6.95;;;1.15;;
72319;SDS011;60269;52.502;16.732;2023-09-30T18:53:16;11.87;;;1.80;;
72319;SDS011;60269;52.502;16.732;2023-09-30T18:56:48;7.88;;;1.27;;
72319;SDS011;60269;52.502;16.732;2023-09-30T19:00:22;11.00;;;1.50;;
72319;SDS011;60269;52.502;16.732;2023-09-30T19:03:54;8.85;;;1.10;;
72319;SDS011;60269;52.502;16.732;2023-09-30T19:07:27;12.20;;;2.03;;
72319;SDS011;60269;52.502;16.732;2023-09-30T19:11:00;9.32;;;1.30;;
72319;SDS011;60269;52.502;16.732;2023-09-30T19:14:34;7.38;;;1.25;;
72319;SDS011;60269;52.502;16.732;2023-09-30T19:18:06;15.27;;;1.83;;
72319;SDS011;60269;52.502;16.732;2023-09-30T19:21:38;8.60;;;1.33;;
72319;SDS011;60269;52.502;16.732;2023-09-30T19:25:11;7.90;;;1.95;;
72319;SDS011;60269;52.502;16.732;2023-09-30T19:28:44;11.52;;;2.20;;
72319;SDS011;60269;52.502;16.732;2023-09-30T19:32:16;12.47;;;1.63;;
72319;SDS011;60269;52.502;16.732;2023-09-30T19:35:48;11.70;;;2.20;;
72319;SDS011;60269;52.502;16.732;2023-09-30T19:39:21;10.80;;;2.17;;
72319;SDS011;60269;52.502;16.732;2023-09-30T19:42:55;12.40;;;3.13;;
72319;SDS011;60269;52.502;16.732;2023-09-30T19:46:27;17.20;;;3.25;;
72319;SDS011;60269;52.502;16.732;2023-09-30T19:49:59;15.07;;;3.08;;
72319;SDS011;60269;52.502;16.732;2023-09-30T19:53:31;15.13;;;3.00;;
72319;SDS011;60269;52.502;16.732;2023-09-30T19:57:04;14.23;;;2.80;;
72319;SDS011;60269;52.502;16.732;2023-09-30T20:00:39;14.60;;;2.88;;
72319;SDS011;60269;52.502;16.732;2023-09-30T20:04:11;11.98;;;2.35;;
72319;SDS011;60269;52.502;16.732;2023-09-30T20:07:43;13.43;;;2.37;;
72319;SDS011;60269;52.502;16.732;2023-09-30T20:11:19;11.77;;;1.98;;
72319;SDS011;60269;52.502;16.732;2023-09-30T20:14:53;8.80;;;1.88;;
72319;SDS011;60269;52.502;16.732;2023-09-30T20:18:24;13.65;;;2.10;;
72319;SDS011;60269;52.502;16.732;2023-09-30T20:21:58;12.20;;;2.57;;
72319;SDS011;60269;52.502;16.732;2023-09-30T20:25:33;16.10;;;2.60;;
72319;SDS011;60269;52.502;16.732;2023-09-30T20:29:05;15.73;;;2.33;;
72319;SDS011;60269;52.502;16.732;2023-09-30T20:32:41;9.53;;;1.70;;
72319;SDS011;60269;52.502;16.732;2023-09-30T20:36:14;10.15;;;2.10;;
72319;SDS011;60269;52.502;16.732;2023-09-30T20:39:46;8.70;;;1.77;;
72319;SDS011;60269;52.502;16.732;2023-09-30T20:43:20;12.82;;;1.83;;
72319;SDS011;60269;52.502;16.732;2023-09-30T20:46:52;13.00;;;2.07;;
72319;SDS011;60269;52.502;16.732;2023-09-30T20:50:24;11.32;;;1.60;;
72319;SDS011;60269;52.502;16.732;2023-09-30T20:53:57;11.93;;;2.17;;
72319;SDS011;60269;52.502;16.732;2023-09-30T20:57:30;13.60;;;2.33;;
72319;SDS011;60269;52.502;16.732;2023-09-30T21:01:06;8.13;;;1.65;;
72319;SDS011;60269;52.502;16.732;2023-09-30T21:04:39;10.80;;;1.80;;
72319;SDS011;60269;52.502;16.732;2023-09-30T21:08:11;12.27;;;1.80;;
72319;SDS011;60269;52.502;16.732;2023-09-30T21:11:48;9.00;;;1.77;;
72319;SDS011;60269;52.502;16.732;2023-09-30T21:15:20;10.73;;;1.55;;